sensor_id;sensor_type;location;lat;lon;timestamp;P1;durP1;ratioP1;P2;durP2;ratioP2
16440;SDS011;8330;-33.858;151.184;2023-08-31T00:01:09;3.97;;;1.30;;
16440;SDS011;8330;-33.858;151.184;2023-08-31T00:03:41;5.35;;;1.35;;
16440;SDS011;8330;-33.858;151.184;2023-08-31T00:06:12;7.43;;;1.50;;
16440;SDS011;8330;-33.858;151.184;2023-08-31T00:08:44;5.93;;;1.27;;
16440;SDS011;8330;-33.858;151.184;2023-08-31T00:11:15;4.50;;;1.17;;
16440;SDS011;8330;-33.858;151.184;2023-08-31T00:13:48;7.25;;;1.55;;
16440;SDS011;8330;-33.858;151.184;2023-08-31T00:16:19;6.10;;;1.45;;
16440;SDS011;8330;-33.858;151.184;2023-08-31T00:18:56;5.25;;;1.40;;
16440;SDS011;8330;-33.858;151.184;2023-08-31T00:21:27;8.48;;;1.42;;
16440;SDS011;8330;-33.858;151.184;2023-08-31T00:23:59;6.50;;;1.50;;
16440;SDS011;8330;-33.858;151.184;2023-08-31T00:26:30;7.25;;;1.40;;
16440;SDS011;8330;-33.858;151.184;2023-08-31T00:29:04;3.63;;;1.00;;
16440;SDS011;8330;-33.858;151.184;2023-08-31T00:31:36;4.25;;;1.20;;
16440;SDS011;8330;-33.858;151.184;2023-08-31T00:34:08;5.53;;;1.63;;
16440;SDS011;8330;-33.858;151.184;2023-08-31T00:36:41;5.80;;;1.10;;
16440;SDS011;8330;-33.858;151.184;2023-08-31T00:39:12;5.13;;;1.20;;
16440;SDS011;8330;-33.858;151.184;2023-08-31T00:41:47;4.55;;;1.08;;
16440;SDS011;8330;-33.858;151.184;2023-08-31T00:44:22;6.57;;;1.48;;
16440;SDS011;8330;-33.858;151.184;2023-08-31T00:46:53;7.90;;;1.10;;
16440;SDS011;8330;-33.858;151.184;2023-08-31T00:49:26;4.20;;;0.88;;
16440;SDS011;8330;-33.858;151.184;2023-08-31T00:51:59;7.40;;;1.48;;
16440;SDS011;8330;-33.858;151.184;2023-08-31T00:54:30;6.13;;;1.20;;
16440;SDS011;8330;-33.858;151.184;2023-08-31T00:57:02;4.22;;;1.13;;
16440;SDS011;8330;-33.858;151.184;2023-08-31T00:59:36;11.38;;;1.35;;
16440;SDS011;8330;-33.858;151.184;2023-08-31T01:02:11;5.38;;;1.30;;
16440;SDS011;8330;-33.858;151.184;2023-08-31T01:04:53;5.90;;;1.40;;
16440;SDS011;8330;-33.858;151.184;2023-08-31T01:07:34;6.97;;;1.63;;
16440;SDS011;8330;-33.858;151.184;2023-08-31T01:10:20;9.43;;;1.42;;
16440;SDS011;8330;-33.858;151.184;2023-08-31T01:12:58;6.43;;;1.13;;
16440;SDS011;8330;-33.858;151.184;2023-08-31T01:15:44;6.72;;;1.73;;
16440;SDS011;8330;-33.858;151.184;2023-08-31T01:18:20;7.30;;;1.55;;
16440;SDS011;8330;-33.858;151.184;2023-08-31T01:20:55;9.93;;;1.58;;
16440;SDS011;8330;-33.858;151.184;2023-08-31T01:26:15;4.35;;;0.95;;
16440;SDS011;8330;-33.858;151.184;2023-08-31T01:28:48;5.93;;;1.42;;
16440;SDS011;8330;-33.858;151.184;2023-08-31T01:31:20;6.45;;;1.00;;
16440;SDS011;8330;-33.858;151.184;2023-08-31T01:33:51;5.18;;;1.35;;
16440;SDS011;8330;-33.858;151.184;2023-08-31T01:36:24;7.30;;;1.20;;
16440;SDS011;8330;-33.858;151.184;2023-08-31T01:39:01;5.75;;;1.25;;
16440;SDS011;8330;-33.858;151.184;2023-08-31T01:41:36;7.28;;;1.48;;
16440;SDS011;8330;-33.858;151.184;2023-08-31T01:44:13;5.50;;;1.40;;
16440;SDS011;8330;-33.858;151.184;2023-08-31T01:46:51;4.55;;;1.25;;
16440;SDS011;8330;-33.858;151.184;2023-08-31T01:49:23;5.28;;;1.30;;
16440;SDS011;8330;-33.858;151.184;2023-08-31T01:51:53;5.93;;;1.38;;
16440;SDS011;8330;-33.858;151.184;2023-08-31T01:54:26;8.20;;;1.52;;
16440;SDS011;8330;-33.858;151.184;2023-08-31T01:56:58;6.03;;;1.27;;
16440;SDS011;8330;-33.858;151.184;2023-08-31T01:59:29;5.20;;;1.40;;
16440;SDS011;8330;-33.858;151.184;2023-08-31T02:02:00;7.55;;;1.52;;
16440;SDS011;8330;-33.858;151.184;2023-08-31T02:04:31;6.63;;;1.55;;
16440;SDS011;8330;-33.858;151.184;2023-08-31T02:07:01;5.93;;;1.88;;
16440;SDS011;8330;-33.858;151.184;2023-08-31T02:09:35;7.00;;;1.55;;
16440;SDS011;8330;-33.858;151.184;2023-08-31T02:12:06;6.85;;;1.50;;
16440;SDS011;8330;-33.858;151.184;2023-08-31T02:14:38;7.00;;;1.90;;
16440;SDS011;8330;-33.858;151.184;2023-08-31T02:17:08;7.63;;;1.60;;
16440;SDS011;8330;-33.858;151.184;2023-08-31T02:19:40;8.02;;;1.50;;
16440;SDS011;8330;-33.858;151.184;2023-08-31T02:22:11;4.50;;;1.80;;
16440;SDS011;8330;-33.858;151.184;2023-08-31T02:24:57;6.05;;;1.65;;
16440;SDS011;8330;-33.858;151.184;2023-08-31T02:27:29;5.25;;;1.30;;
16440;SDS011;8330;-33.858;151.184;2023-08-31T02:30:00;4.68;;;1.25;;
16440;SDS011;8330;-33.858;151.184;2023-08-31T02:32:31;4.70;;;1.40;;
16440;SDS011;8330;-33.858;151.184;2023-08-31T02:35:02;4.00;;;1.25;;
16440;SDS011;8330;-33.858;151.184;2023-08-31T02:37:34;7.00;;;1.80;;
16440;SDS011;8330;-33.858;151.184;2023-08-31T02:40:08;6.28;;;1.50;;
16440;SDS011;8330;-33.858;151.184;2023-08-31T02:42:41;5.28;;;1.25;;
16440;SDS011;8330;-33.858;151.184;2023-08-31T02:45:13;8.38;;;2.42;;
16440;SDS011;8330;-33.858;151.184;2023-08-31T02:47:44;6.75;;;1.65;;
16440;SDS011;8330;-33.858;151.184;2023-08-31T02:50:15;8.68;;;1.67;;
16440;SDS011;8330;-33.858;151.184;2023-08-31T02:52:46;7.40;;;1.50;;
16440;SDS011;8330;-33.858;151.184;2023-08-31T02:55:19;5.68;;;1.55;;
16440;SDS011;8330;-33.858;151.184;2023-08-31T02:57:51;7.55;;;1.58;;
16440;SDS011;8330;-33.858;151.184;2023-08-31T03:00:23;4.40;;;1.02;;
16440;SDS011;8330;-33.858;151.184;2023-08-31T03:02:54;5.57;;;1.10;;
16440;SDS011;8330;-33.858;151.184;2023-08-31T03:05:25;6.85;;;1.30;;
16440;SDS011;8330;-33.858;151.184;2023-08-31T03:07:56;5.47;;;1.00;;
16440;SDS011;8330;-33.858;151.184;2023-08-31T03:10:29;5.53;;;1.30;;
16440;SDS011;8330;-33.858;151.184;2023-08-31T03:13:00;4.85;;;1.30;;
16440;SDS011;8330;-33.858;151.184;2023-08-31T03:15:32;5.78;;;1.48;;
16440;SDS011;8330;-33.858;151.184;2023-08-31T03:18:03;4.47;;;1.35;;
16440;SDS011;8330;-33.858;151.184;2023-08-31T03:20:35;4.47;;;1.38;;
16440;SDS011;8330;-33.858;151.184;2023-08-31T03:23:05;8.18;;;1.42;;
16440;SDS011;8330;-33.858;151.184;2023-08-31T03:25:40;5.75;;;1.48;;
16440;SDS011;8330;-33.858;151.184;2023-08-31T03:28:13;5.13;;;1.23;;
16440;SDS011;8330;-33.858;151.184;2023-08-31T03:30:44;6.88;;;1.45;;
16440;SDS011;8330;-33.858;151.184;2023-08-31T03:33:22;5.85;;;1.60;;
16440;SDS011;8330;-33.858;151.184;2023-08-31T03:35:55;3.45;;;1.33;;
16440;SDS011;8330;-33.858;151.184;2023-08-31T03:38:32;5.43;;;1.70;;
16440;SDS011;8330;-33.858;151.184;2023-08-31T03:41:07;8.60;;;1.90;;
16440;SDS011;8330;-33.858;151.184;2023-08-31T03:43:38;5.47;;;1.27;;
16440;SDS011;8330;-33.858;151.184;2023-08-31T03:46:10;7.40;;;1.27;;
16440;SDS011;8330;-33.858;151.184;2023-08-31T03:48:46;7.22;;;1.23;;
16440;SDS011;8330;-33.858;151.184;2023-08-31T03:51:17;8.00;;;1.08;;
16440;SDS011;8330;-33.858;151.184;2023-08-31T03:53:48;5.10;;;1.42;;
16440;SDS011;8330;-33.858;151.184;2023-08-31T03:56:24;3.95;;;1.13;;
16440;SDS011;8330;-33.858;151.184;2023-08-31T03:58:55;5.07;;;1.30;;
16440;SDS011;8330;-33.858;151.184;2023-08-31T04:01:26;6.60;;;1.50;;
16440;SDS011;8330;-33.858;151.184;2023-08-31T04:03:57;5.97;;;1.30;;
16440;SDS011;8330;-33.858;151.184;2023-08-31T04:06:30;4.32;;;1.15;;
16440;SDS011;8330;-33.858;151.184;2023-08-31T04:09:01;5.57;;;1.27;;
16440;SDS011;8330;-33.858;151.184;2023-08-31T04:11:35;5.72;;;1.40;;
16440;SDS011;8330;-33.858;151.184;2023-08-31T04:14:06;6.55;;;1.48;;
16440;SDS011;8330;-33.858;151.184;2023-08-31T04:16:37;5.03;;;1.42;;
16440;SDS011;8330;-33.858;151.184;2023-08-31T04:19:08;6.72;;;1.73;;
16440;SDS011;8330;-33.858;151.184;2023-08-31T04:21:39;5.82;;;1.40;;
16440;SDS011;8330;-33.858;151.184;2023-08-31T04:24:10;7.53;;;1.23;;
16440;SDS011;8330;-33.858;151.184;2023-08-31T04:26:44;5.72;;;1.17;;
16440;SDS011;8330;-33.858;151.184;2023-08-31T04:29:17;6.88;;;1.48;;
16440;SDS011;8330;-33.858;151.184;2023-08-31T04:31:48;4.63;;;1.30;;
16440;SDS011;8330;-33.858;151.184;2023-08-31T04:34:20;4.60;;;1.15;;
16440;SDS011;8330;-33.858;151.184;2023-08-31T04:36:52;8.15;;;1.05;;
16440;SDS011;8330;-33.858;151.184;2023-08-31T04:39:23;6.10;;;1.45;;
16440;SDS011;8330;-33.858;151.184;2023-08-31T04:41:57;8.38;;;1.45;;
16440;SDS011;8330;-33.858;151.184;2023-08-31T04:44:29;8.85;;;1.70;;
16440;SDS011;8330;-33.858;151.184;2023-08-31T04:47:00;6.68;;;1.20;;
16440;SDS011;8330;-33.858;151.184;2023-08-31T04:49:30;7.38;;;1.40;;
16440;SDS011;8330;-33.858;151.184;2023-08-31T04:52:01;7.63;;;1.67;;
16440;SDS011;8330;-33.858;151.184;2023-08-31T04:54:32;12.95;;;1.60;;
16440;SDS011;8330;-33.858;151.184;2023-08-31T04:57:05;8.50;;;1.52;;
16440;SDS011;8330;-33.858;151.184;2023-08-31T04:59:36;8.60;;;1.55;;
16440;SDS011;8330;-33.858;151.184;2023-08-31T05:02:07;6.95;;;1.30;;
16440;SDS011;8330;-33.858;151.184;2023-08-31T05:04:38;8.57;;;1.67;;
16440;SDS011;8330;-33.858;151.184;2023-08-31T05:07:09;10.18;;;1.65;;
16440;SDS011;8330;-33.858;151.184;2023-08-31T05:09:40;6.85;;;1.33;;
16440;SDS011;8330;-33.858;151.184;2023-08-31T05:12:13;7.95;;;1.73;;
16440;SDS011;8330;-33.858;151.184;2023-08-31T05:14:45;6.53;;;1.60;;
16440;SDS011;8330;-33.858;151.184;2023-08-31T05:17:16;8.80;;;1.80;;
16440;SDS011;8330;-33.858;151.184;2023-08-31T05:19:47;6.90;;;1.40;;
16440;SDS011;8330;-33.858;151.184;2023-08-31T05:22:18;9.27;;;1.50;;
16440;SDS011;8330;-33.858;151.184;2023-08-31T05:24:50;4.85;;;1.50;;
16440;SDS011;8330;-33.858;151.184;2023-08-31T05:27:23;5.35;;;1.20;;
16440;SDS011;8330;-33.858;151.184;2023-08-31T05:29:55;6.07;;;1.38;;
16440;SDS011;8330;-33.858;151.184;2023-08-31T05:32:28;6.93;;;1.20;;
16440;SDS011;8330;-33.858;151.184;2023-08-31T05:34:59;5.65;;;1.33;;
16440;SDS011;8330;-33.858;151.184;2023-08-31T05:37:32;6.10;;;1.40;;
16440;SDS011;8330;-33.858;151.184;2023-08-31T05:40:03;6.32;;;1.70;;
16440;SDS011;8330;-33.858;151.184;2023-08-31T05:42:38;4.47;;;1.48;;
16440;SDS011;8330;-33.858;151.184;2023-08-31T05:45:09;4.80;;;1.17;;
16440;SDS011;8330;-33.858;151.184;2023-08-31T05:47:41;6.75;;;1.30;;
16440;SDS011;8330;-33.858;151.184;2023-08-31T05:50:12;7.57;;;1.35;;
16440;SDS011;8330;-33.858;151.184;2023-08-31T05:52:43;6.50;;;1.13;;
16440;SDS011;8330;-33.858;151.184;2023-08-31T05:55:14;5.95;;;1.45;;
16440;SDS011;8330;-33.858;151.184;2023-08-31T05:57:48;4.07;;;1.40;;
16440;SDS011;8330;-33.858;151.184;2023-08-31T06:00:19;7.53;;;1.42;;
16440;SDS011;8330;-33.858;151.184;2023-08-31T06:02:50;3.67;;;1.30;;
16440;SDS011;8330;-33.858;151.184;2023-08-31T06:05:21;3.58;;;1.15;;
16440;SDS011;8330;-33.858;151.184;2023-08-31T06:08:03;5.38;;;1.55;;
16440;SDS011;8330;-33.858;151.184;2023-08-31T06:10:38;8.48;;;1.63;;
16440;SDS011;8330;-33.858;151.184;2023-08-31T06:13:14;6.60;;;1.40;;
16440;SDS011;8330;-33.858;151.184;2023-08-31T06:15:47;6.63;;;1.20;;
16440;SDS011;8330;-33.858;151.184;2023-08-31T06:18:18;5.07;;;1.27;;
16440;SDS011;8330;-33.858;151.184;2023-08-31T06:20:51;4.20;;;1.20;;
16440;SDS011;8330;-33.858;151.184;2023-08-31T06:23:22;4.90;;;1.23;;
16440;SDS011;8330;-33.858;151.184;2023-08-31T06:25:53;5.00;;;1.35;;
16440;SDS011;8330;-33.858;151.184;2023-08-31T06:28:26;8.75;;;1.75;;
16440;SDS011;8330;-33.858;151.184;2023-08-31T06:30:57;5.28;;;1.10;;
16440;SDS011;8330;-33.858;151.184;2023-08-31T06:33:28;4.10;;;1.17;;
16440;SDS011;8330;-33.858;151.184;2023-08-31T06:35:59;5.15;;;1.17;;
16440;SDS011;8330;-33.858;151.184;2023-08-31T06:38:30;6.43;;;1.38;;
16440;SDS011;8330;-33.858;151.184;2023-08-31T06:41:02;5.13;;;1.48;;
16440;SDS011;8330;-33.858;151.184;2023-08-31T06:43:35;5.53;;;1.38;;
16440;SDS011;8330;-33.858;151.184;2023-08-31T06:46:07;6.15;;;1.33;;
16440;SDS011;8330;-33.858;151.184;2023-08-31T06:48:50;5.10;;;1.23;;
16440;SDS011;8330;-33.858;151.184;2023-08-31T06:51:21;4.47;;;1.20;;
16440;SDS011;8330;-33.858;151.184;2023-08-31T06:53:56;6.00;;;1.30;;
16440;SDS011;8330;-33.858;151.184;2023-08-31T06:56:40;4.28;;;1.13;;
16440;SDS011;8330;-33.858;151.184;2023-08-31T06:59:15;6.93;;;1.38;;
16440;SDS011;8330;-33.858;151.184;2023-08-31T07:01:52;4.30;;;1.20;;
16440;SDS011;8330;-33.858;151.184;2023-08-31T07:04:23;5.93;;;1.50;;
16440;SDS011;8330;-33.858;151.184;2023-08-31T07:07:01;4.57;;;1.30;;
16440;SDS011;8330;-33.858;151.184;2023-08-31T07:09:32;5.13;;;1.30;;
16440;SDS011;8330;-33.858;151.184;2023-08-31T07:12:03;7.78;;;1.48;;
16440;SDS011;8330;-33.858;151.184;2023-08-31T07:14:37;5.32;;;0.93;;
16440;SDS011;8330;-33.858;151.184;2023-08-31T07:17:10;4.70;;;1.10;;
16440;SDS011;8330;-33.858;151.184;2023-08-31T07:19:41;3.03;;;0.90;;
16440;SDS011;8330;-33.858;151.184;2023-08-31T07:22:12;7.03;;;1.20;;
16440;SDS011;8330;-33.858;151.184;2023-08-31T07:24:47;5.70;;;1.50;;
16440;SDS011;8330;-33.858;151.184;2023-08-31T07:27:20;6.22;;;1.23;;
16440;SDS011;8330;-33.858;151.184;2023-08-31T07:29:53;5.85;;;1.20;;
16440;SDS011;8330;-33.858;151.184;2023-08-31T07:32:24;6.28;;;1.20;;
16440;SDS011;8330;-33.858;151.184;2023-08-31T07:34:57;5.75;;;1.52;;
16440;SDS011;8330;-33.858;151.184;2023-08-31T07:37:30;7.68;;;1.50;;
16440;SDS011;8330;-33.858;151.184;2023-08-31T07:40:03;4.03;;;1.10;;
16440;SDS011;8330;-33.858;151.184;2023-08-31T07:42:36;6.32;;;1.73;;
16440;SDS011;8330;-33.858;151.184;2023-08-31T07:45:10;6.53;;;1.27;;
16440;SDS011;8330;-33.858;151.184;2023-08-31T07:47:41;7.88;;;1.33;;
16440;SDS011;8330;-33.858;151.184;2023-08-31T07:50:12;6.13;;;1.30;;
16440;SDS011;8330;-33.858;151.184;2023-08-31T07:52:43;3.60;;;1.05;;
16440;SDS011;8330;-33.858;151.184;2023-08-31T07:55:14;5.80;;;0.90;;
16440;SDS011;8330;-33.858;151.184;2023-08-31T07:57:45;5.07;;;1.25;;
16440;SDS011;8330;-33.858;151.184;2023-08-31T08:00:19;6.68;;;1.50;;
16440;SDS011;8330;-33.858;151.184;2023-08-31T08:02:50;5.53;;;1.20;;
16440;SDS011;8330;-33.858;151.184;2023-08-31T08:05:21;6.57;;;1.20;;
16440;SDS011;8330;-33.858;151.184;2023-08-31T08:07:52;6.07;;;1.10;;
16440;SDS011;8330;-33.858;151.184;2023-08-31T08:10:23;6.95;;;1.45;;
16440;SDS011;8330;-33.858;151.184;2023-08-31T08:12:55;5.50;;;1.27;;
16440;SDS011;8330;-33.858;151.184;2023-08-31T08:15:29;6.22;;;1.40;;
16440;SDS011;8330;-33.858;151.184;2023-08-31T08:18:00;5.75;;;1.30;;
16440;SDS011;8330;-33.858;151.184;2023-08-31T08:20:31;5.80;;;1.45;;
16440;SDS011;8330;-33.858;151.184;2023-08-31T08:23:02;8.63;;;1.42;;
16440;SDS011;8330;-33.858;151.184;2023-08-31T08:25:34;5.95;;;1.30;;
16440;SDS011;8330;-33.858;151.184;2023-08-31T08:28:05;6.15;;;1.48;;
16440;SDS011;8330;-33.858;151.184;2023-08-31T08:30:40;5.95;;;1.63;;
16440;SDS011;8330;-33.858;151.184;2023-08-31T08:33:11;6.55;;;1.63;;
16440;SDS011;8330;-33.858;151.184;2023-08-31T08:35:42;3.28;;;1.45;;
16440;SDS011;8330;-33.858;151.184;2023-08-31T08:38:12;4.85;;;1.60;;
16440;SDS011;8330;-33.858;151.184;2023-08-31T08:40:43;5.25;;;1.35;;
16440;SDS011;8330;-33.858;151.184;2023-08-31T08:43:15;5.43;;;1.48;;
16440;SDS011;8330;-33.858;151.184;2023-08-31T08:45:52;7.60;;;1.40;;
16440;SDS011;8330;-33.858;151.184;2023-08-31T08:48:23;7.28;;;1.83;;
16440;SDS011;8330;-33.858;151.184;2023-08-31T08:50:54;7.30;;;1.80;;
16440;SDS011;8330;-33.858;151.184;2023-08-31T08:53:26;5.57;;;1.75;;
16440;SDS011;8330;-33.858;151.184;2023-08-31T08:55:58;5.28;;;1.65;;
16440;SDS011;8330;-33.858;151.184;2023-08-31T08:58:30;6.15;;;1.98;;
16440;SDS011;8330;-33.858;151.184;2023-08-31T09:01:04;7.50;;;1.88;;
16440;SDS011;8330;-33.858;151.184;2023-08-31T09:03:38;5.28;;;1.50;;
16440;SDS011;8330;-33.858;151.184;2023-08-31T09:06:09;7.40;;;1.70;;
16440;SDS011;8330;-33.858;151.184;2023-08-31T09:08:41;4.68;;;1.52;;
16440;SDS011;8330;-33.858;151.184;2023-08-31T09:11:19;7.70;;;1.80;;
16440;SDS011;8330;-33.858;151.184;2023-08-31T09:13:51;6.18;;;1.58;;
16440;SDS011;8330;-33.858;151.184;2023-08-31T09:16:27;7.22;;;1.83;;
16440;SDS011;8330;-33.858;151.184;2023-08-31T09:18:59;5.50;;;1.48;;
16440;SDS011;8330;-33.858;151.184;2023-08-31T09:21:46;7.93;;;1.50;;
16440;SDS011;8330;-33.858;151.184;2023-08-31T09:24:18;6.85;;;1.42;;
16440;SDS011;8330;-33.858;151.184;2023-08-31T09:26:52;9.00;;;2.15;;
16440;SDS011;8330;-33.858;151.184;2023-08-31T09:29:26;7.03;;;2.63;;
16440;SDS011;8330;-33.858;151.184;2023-08-31T09:32:00;7.00;;;3.50;;
16440;SDS011;8330;-33.858;151.184;2023-08-31T09:34:35;9.18;;;5.00;;
16440;SDS011;8330;-33.858;151.184;2023-08-31T09:37:07;8.40;;;5.72;;
16440;SDS011;8330;-33.858;151.184;2023-08-31T09:39:39;9.70;;;4.60;;
16440;SDS011;8330;-33.858;151.184;2023-08-31T09:42:10;12.38;;;5.75;;
16440;SDS011;8330;-33.858;151.184;2023-08-31T09:44:41;19.13;;;10.73;;
16440;SDS011;8330;-33.858;151.184;2023-08-31T09:47:15;15.00;;;7.07;;
16440;SDS011;8330;-33.858;151.184;2023-08-31T09:49:48;16.35;;;6.97;;
16440;SDS011;8330;-33.858;151.184;2023-08-31T09:52:19;10.45;;;4.25;;
16440;SDS011;8330;-33.858;151.184;2023-08-31T09:54:51;10.65;;;4.10;;
16440;SDS011;8330;-33.858;151.184;2023-08-31T09:57:23;11.80;;;4.68;;
16440;SDS011;8330;-33.858;151.184;2023-08-31T09:59:55;10.05;;;3.17;;
16440;SDS011;8330;-33.858;151.184;2023-08-31T10:02:29;6.55;;;2.58;;
16440;SDS011;8330;-33.858;151.184;2023-08-31T10:05:00;13.57;;;4.90;;
16440;SDS011;8330;-33.858;151.184;2023-08-31T10:07:32;16.35;;;6.68;;
16440;SDS011;8330;-33.858;151.184;2023-08-31T10:10:03;17.20;;;6.65;;
16440;SDS011;8330;-33.858;151.184;2023-08-31T10:12:35;13.13;;;4.65;;
16440;SDS011;8330;-33.858;151.184;2023-08-31T10:15:07;11.38;;;4.43;;
16440;SDS011;8330;-33.858;151.184;2023-08-31T10:17:40;11.85;;;4.75;;
16440;SDS011;8330;-33.858;151.184;2023-08-31T10:20:14;10.70;;;3.65;;
16440;SDS011;8330;-33.858;151.184;2023-08-31T10:22:46;8.68;;;2.92;;
16440;SDS011;8330;-33.858;151.184;2023-08-31T10:25:17;9.10;;;2.80;;
16440;SDS011;8330;-33.858;151.184;2023-08-31T10:27:48;10.43;;;3.97;;
16440;SDS011;8330;-33.858;151.184;2023-08-31T10:30:26;10.68;;;4.13;;
16440;SDS011;8330;-33.858;151.184;2023-08-31T10:35:54;10.45;;;3.88;;
16440;SDS011;8330;-33.858;151.184;2023-08-31T10:38:26;8.45;;;3.10;;
16440;SDS011;8330;-33.858;151.184;2023-08-31T10:41:01;9.32;;;3.47;;
16440;SDS011;8330;-33.858;151.184;2023-08-31T10:43:50;12.38;;;3.95;;
16440;SDS011;8330;-33.858;151.184;2023-08-31T10:46:26;12.27;;;4.25;;
16440;SDS011;8330;-33.858;151.184;2023-08-31T10:49:00;8.80;;;3.75;;
16440;SDS011;8330;-33.858;151.184;2023-08-31T10:51:41;14.15;;;5.80;;
16440;SDS011;8330;-33.858;151.184;2023-08-31T10:54:26;13.50;;;4.80;;
16440;SDS011;8330;-33.858;151.184;2023-08-31T10:57:04;11.90;;;4.53;;
16440;SDS011;8330;-33.858;151.184;2023-08-31T10:59:43;15.82;;;6.00;;
16440;SDS011;8330;-33.858;151.184;2023-08-31T11:02:29;12.90;;;4.78;;
16440;SDS011;8330;-33.858;151.184;2023-08-31T11:05:05;11.57;;;4.35;;
16440;SDS011;8330;-33.858;151.184;2023-08-31T11:07:38;9.70;;;3.65;;
16440;SDS011;8330;-33.858;151.184;2023-08-31T11:10:10;11.10;;;4.25;;
16440;SDS011;8330;-33.858;151.184;2023-08-31T11:12:40;10.10;;;4.47;;
16440;SDS011;8330;-33.858;151.184;2023-08-31T11:15:12;9.88;;;4.45;;
16440;SDS011;8330;-33.858;151.184;2023-08-31T11:17:44;11.00;;;4.07;;
16440;SDS011;8330;-33.858;151.184;2023-08-31T11:20:19;8.88;;;3.30;;
16440;SDS011;8330;-33.858;151.184;2023-08-31T11:22:54;9.00;;;3.35;;
16440;SDS011;8330;-33.858;151.184;2023-08-31T11:25:25;8.98;;;3.83;;
16440;SDS011;8330;-33.858;151.184;2023-08-31T11:28:00;5.97;;;2.90;;
16440;SDS011;8330;-33.858;151.184;2023-08-31T11:30:32;6.55;;;2.72;;
16440;SDS011;8330;-33.858;151.184;2023-08-31T11:33:04;6.75;;;2.92;;
16440;SDS011;8330;-33.858;151.184;2023-08-31T11:35:41;9.30;;;3.30;;
16440;SDS011;8330;-33.858;151.184;2023-08-31T11:38:13;8.43;;;3.53;;
16440;SDS011;8330;-33.858;151.184;2023-08-31T11:40:44;10.13;;;3.85;;
16440;SDS011;8330;-33.858;151.184;2023-08-31T11:43:16;8.98;;;3.28;;
16440;SDS011;8330;-33.858;151.184;2023-08-31T11:46:01;6.35;;;2.72;;
16440;SDS011;8330;-33.858;151.184;2023-08-31T11:48:34;7.55;;;3.00;;
16440;SDS011;8330;-33.858;151.184;2023-08-31T11:51:09;5.72;;;2.53;;
16440;SDS011;8330;-33.858;151.184;2023-08-31T11:53:42;7.53;;;2.42;;
16440;SDS011;8330;-33.858;151.184;2023-08-31T11:56:13;5.35;;;2.38;;
16440;SDS011;8330;-33.858;151.184;2023-08-31T11:58:44;8.70;;;2.95;;
16440;SDS011;8330;-33.858;151.184;2023-08-31T12:01:17;9.13;;;2.90;;
16440;SDS011;8330;-33.858;151.184;2023-08-31T12:03:50;7.10;;;2.72;;
16440;SDS011;8330;-33.858;151.184;2023-08-31T12:06:33;4.85;;;2.33;;
16440;SDS011;8330;-33.858;151.184;2023-08-31T12:09:05;6.88;;;2.60;;
16440;SDS011;8330;-33.858;151.184;2023-08-31T12:11:37;7.60;;;2.92;;
16440;SDS011;8330;-33.858;151.184;2023-08-31T12:17:01;6.53;;;2.80;;
16440;SDS011;8330;-33.858;151.184;2023-08-31T12:19:33;8.45;;;2.78;;
16440;SDS011;8330;-33.858;151.184;2023-08-31T12:22:07;8.80;;;2.80;;
16440;SDS011;8330;-33.858;151.184;2023-08-31T12:24:41;6.80;;;2.60;;
16440;SDS011;8330;-33.858;151.184;2023-08-31T12:27:12;8.18;;;3.08;;
16440;SDS011;8330;-33.858;151.184;2023-08-31T12:29:43;7.97;;;2.63;;
16440;SDS011;8330;-33.858;151.184;2023-08-31T12:32:16;7.75;;;2.65;;
16440;SDS011;8330;-33.858;151.184;2023-08-31T12:34:47;6.70;;;2.60;;
16440;SDS011;8330;-33.858;151.184;2023-08-31T12:37:22;9.38;;;2.72;;
16440;SDS011;8330;-33.858;151.184;2023-08-31T12:39:53;6.32;;;3.00;;
16440;SDS011;8330;-33.858;151.184;2023-08-31T12:42:24;7.85;;;2.75;;
16440;SDS011;8330;-33.858;151.184;2023-08-31T12:44:55;8.23;;;2.95;;
16440;SDS011;8330;-33.858;151.184;2023-08-31T12:47:25;7.80;;;2.90;;
16440;SDS011;8330;-33.858;151.184;2023-08-31T12:49:57;8.48;;;2.50;;
16440;SDS011;8330;-33.858;151.184;2023-08-31T12:52:31;10.23;;;4.20;;
16440;SDS011;8330;-33.858;151.184;2023-08-31T12:55:02;8.10;;;3.13;;
16440;SDS011;8330;-33.858;151.184;2023-08-31T12:57:34;7.72;;;2.83;;
16440;SDS011;8330;-33.858;151.184;2023-08-31T13:00:08;9.55;;;2.60;;
16440;SDS011;8330;-33.858;151.184;2023-08-31T13:02:51;9.85;;;2.70;;
16440;SDS011;8330;-33.858;151.184;2023-08-31T13:05:23;6.88;;;2.72;;
16440;SDS011;8330;-33.858;151.184;2023-08-31T13:08:10;7.05;;;2.58;;
16440;SDS011;8330;-33.858;151.184;2023-08-31T13:10:40;7.90;;;3.05;;
16440;SDS011;8330;-33.858;151.184;2023-08-31T13:13:20;9.82;;;3.10;;
16440;SDS011;8330;-33.858;151.184;2023-08-31T13:15:51;9.43;;;3.08;;
16440;SDS011;8330;-33.858;151.184;2023-08-31T13:18:22;8.73;;;3.03;;
16440;SDS011;8330;-33.858;151.184;2023-08-31T13:20:54;8.60;;;3.13;;
16440;SDS011;8330;-33.858;151.184;2023-08-31T13:23:29;9.80;;;3.55;;
16440;SDS011;8330;-33.858;151.184;2023-08-31T13:26:00;11.55;;;3.60;;
16440;SDS011;8330;-33.858;151.184;2023-08-31T13:28:34;10.35;;;3.50;;
16440;SDS011;8330;-33.858;151.184;2023-08-31T13:31:05;8.90;;;3.35;;
16440;SDS011;8330;-33.858;151.184;2023-08-31T13:33:36;9.23;;;3.60;;
16440;SDS011;8330;-33.858;151.184;2023-08-31T13:36:07;11.18;;;4.03;;
16440;SDS011;8330;-33.858;151.184;2023-08-31T13:38:40;11.35;;;4.20;;
16440;SDS011;8330;-33.858;151.184;2023-08-31T13:41:10;14.38;;;3.72;;
16440;SDS011;8330;-33.858;151.184;2023-08-31T13:43:41;11.52;;;3.83;;
16440;SDS011;8330;-33.858;151.184;2023-08-31T13:46:12;12.80;;;3.60;;
16440;SDS011;8330;-33.858;151.184;2023-08-31T13:48:43;7.45;;;3.00;;
16440;SDS011;8330;-33.858;151.184;2023-08-31T13:51:15;10.38;;;3.15;;
16440;SDS011;8330;-33.858;151.184;2023-08-31T13:53:50;8.13;;;3.03;;
16440;SDS011;8330;-33.858;151.184;2023-08-31T13:56:32;8.35;;;2.92;;
16440;SDS011;8330;-33.858;151.184;2023-08-31T13:59:03;8.80;;;2.85;;
16440;SDS011;8330;-33.858;151.184;2023-08-31T14:01:34;11.23;;;2.90;;
16440;SDS011;8330;-33.858;151.184;2023-08-31T14:04:05;6.25;;;2.60;;
16440;SDS011;8330;-33.858;151.184;2023-08-31T14:06:36;7.82;;;2.78;;
16440;SDS011;8330;-33.858;151.184;2023-08-31T14:09:09;7.65;;;2.40;;
16440;SDS011;8330;-33.858;151.184;2023-08-31T14:11:42;8.98;;;3.00;;
16440;SDS011;8330;-33.858;151.184;2023-08-31T14:14:13;5.07;;;2.20;;
16440;SDS011;8330;-33.858;151.184;2023-08-31T14:16:44;8.43;;;2.80;;
16440;SDS011;8330;-33.858;151.184;2023-08-31T14:19:16;5.05;;;2.20;;
16440;SDS011;8330;-33.858;151.184;2023-08-31T14:21:47;3.05;;;1.70;;
16440;SDS011;8330;-33.858;151.184;2023-08-31T14:24:22;3.08;;;1.52;;
16440;SDS011;8330;-33.858;151.184;2023-08-31T14:26:54;4.07;;;1.50;;
16440;SDS011;8330;-33.858;151.184;2023-08-31T14:29:25;6.53;;;2.80;;
16440;SDS011;8330;-33.858;151.184;2023-08-31T14:31:56;8.73;;;4.57;;
16440;SDS011;8330;-33.858;151.184;2023-08-31T14:34:27;4.15;;;2.30;;
16440;SDS011;8330;-33.858;151.184;2023-08-31T14:37:05;5.13;;;1.73;;
16440;SDS011;8330;-33.858;151.184;2023-08-31T14:39:40;5.57;;;1.70;;
16440;SDS011;8330;-33.858;151.184;2023-08-31T14:42:12;5.82;;;1.70;;
16440;SDS011;8330;-33.858;151.184;2023-08-31T14:44:46;5.22;;;1.50;;
16440;SDS011;8330;-33.858;151.184;2023-08-31T14:47:17;4.10;;;1.60;;
16440;SDS011;8330;-33.858;151.184;2023-08-31T14:49:48;3.80;;;1.40;;
16440;SDS011;8330;-33.858;151.184;2023-08-31T14:52:19;3.45;;;1.80;;
16440;SDS011;8330;-33.858;151.184;2023-08-31T14:54:52;4.60;;;1.75;;
16440;SDS011;8330;-33.858;151.184;2023-08-31T14:57:23;4.65;;;1.50;;
16440;SDS011;8330;-33.858;151.184;2023-08-31T14:59:54;4.40;;;1.60;;
16440;SDS011;8330;-33.858;151.184;2023-08-31T15:02:25;3.92;;;1.40;;